Aurora, Brazil
Current Conditions -  °F | °C
As of 7:00 PM on Sunday 25 Jan 2015 (Local Time) from SBJU Reporting Station
Few Clouds Few Clouds  
Wind Chill: 32°   Ceiling: Unl
Heat Index: 33°   Visibility: 6mi
Dew Point: 19°   Wind: 0mph
Humidity: 46%   Direction: NA
Pressure: 29.94"   Gusts: NA
Location:  6.94°S, 38.97°W
Report Text: SBJU 252200Z 00000KT 9999 FEW020 32/19 Q1014
Loading
Personal Weather Stations






























Interactive Weather Map New forecast layout! Learn more

10-Day Weather Forecast

Advertisements
Track Severe Weather on mobile